createdAt,value
2022-08-12T00:02:03.198Z,51.84
2022-08-12T00:04:52.756Z,51.70
2022-08-12T00:07:38.758Z,51.79
2022-08-12T00:10:24.768Z,51.84
2022-08-12T00:13:11.810Z,51.82
2022-08-12T00:15:57.803Z,51.87
2022-08-12T00:18:42.911Z,51.84
2022-08-12T00:21:31.404Z,51.92
2022-08-12T00:24:18.576Z,52.00
2022-08-12T00:27:05.524Z,52.03
2022-08-12T00:29:51.274Z,52.23
2022-08-12T00:32:56.847Z,52.18
2022-08-12T00:35:42.362Z,52.19
2022-08-12T00:38:27.728Z,52.45
2022-08-12T00:41:13.205Z,52.60
2022-08-12T00:43:43.314Z,52.63
2022-08-12T00:46:28.741Z,52.71
2022-08-12T00:48:57.290Z,52.96
2022-08-12T00:51:45.002Z,52.82
2022-08-12T00:54:11.670Z,53.03
2022-08-12T00:56:39.577Z,53.14
2022-08-12T00:59:06.749Z,53.14
2022-08-12T01:02:10.503Z,53.19
2022-08-12T01:04:43.674Z,53.22
2022-08-12T01:07:32.232Z,53.36
2022-08-12T01:10:17.898Z,53.41
2022-08-12T01:12:54.380Z,53.52
2022-08-12T01:15:34.444Z,53.56
2022-08-12T01:18:01.815Z,53.72
2022-08-12T01:21:03.611Z,53.83
2022-08-12T01:23:42.723Z,54.03
2022-08-12T01:26:16.717Z,54.06
2022-08-12T01:28:46.731Z,54.19
2022-08-12T01:31:16.576Z,54.41
2022-08-12T01:34:28.663Z,54.49
2022-08-12T01:36:58.552Z,54.64
2022-08-12T01:39:30.509Z,54.70
2022-08-12T01:42:03.576Z,54.98
2022-08-12T01:44:32.716Z,55.02
2022-08-12T01:47:22.454Z,55.24
2022-08-12T01:50:16.766Z,55.31
2022-08-12T01:52:55.327Z,55.42
2022-08-12T01:55:24.682Z,55.85
2022-08-12T01:58:05.940Z,56.05
2022-08-12T02:00:55.550Z,56.15
2022-08-12T02:03:56.570Z,56.19
2022-08-12T02:06:51.773Z,56.28
2022-08-12T02:09:44.550Z,56.62
2022-08-12T02:12:28.529Z,56.87
2022-08-12T02:15:27.422Z,57.10
2022-08-12T02:18:22.560Z,57.53
2022-08-12T02:21:05.370Z,57.77
2022-08-12T02:23:34.746Z,58.02
2022-08-12T02:26:07.965Z,58.18
2022-08-12T02:28:36.809Z,58.51
2022-08-12T02:31:06.094Z,58.70
2022-08-12T02:33:33.655Z,58.88
2022-08-12T02:36:02.741Z,59.13
2022-08-12T02:38:31.151Z,59.33
2022-08-12T02:41:03.656Z,59.56
2022-08-12T02:43:56.337Z,59.73
2022-08-12T02:46:35.118Z,60.07
2022-08-12T02:49:29.564Z,60.24
2022-08-12T02:51:56.636Z,60.22
2022-08-12T02:54:24.986Z,60.43
2022-08-12T02:56:52.430Z,60.53
2022-08-12T02:59:22.847Z,60.69
2022-08-12T03:01:59.467Z,60.83
2022-08-12T03:04:39.040Z,61.09
2022-08-12T03:07:20.152Z,61.30
2022-08-12T03:10:15.894Z,61.38
2022-08-12T03:12:49.113Z,61.66
2022-08-12T03:15:22.148Z,61.86
2022-08-12T03:18:23.569Z,61.86
2022-08-12T03:20:54.067Z,62.20
2022-08-12T03:23:29.759Z,62.27
2022-08-12T03:26:02.619Z,62.47
2022-08-12T03:28:53.616Z,62.40
2022-08-12T03:31:25.120Z,62.24
2022-08-12T03:34:00.628Z,62.16
2022-08-12T03:36:36.295Z,62.13
2022-08-12T03:39:17.868Z,62.16
2022-08-12T03:42:01.561Z,62.24
2022-08-12T03:44:56.153Z,62.37
2022-08-12T03:47:52.334Z,62.76
2022-08-12T03:50:38.456Z,63.03
2022-08-12T03:53:27.849Z,63.24
2022-08-12T03:56:13.663Z,63.43
2022-08-12T03:58:59.857Z,63.65
2022-08-12T04:01:27.515Z,63.82
2022-08-12T04:03:54.990Z,63.91
2022-08-12T04:06:34.317Z,64.07
2022-08-12T04:09:15.940Z,64.14
2022-08-12T04:12:03.810Z,64.12
2022-08-12T04:14:31.307Z,63.99
2022-08-12T04:16:58.574Z,64.10
2022-08-12T04:19:28.642Z,64.30
2022-08-12T04:22:01.108Z,64.45
2022-08-12T04:24:31.481Z,64.35
2022-08-12T04:26:58.124Z,64.19
2022-08-12T04:30:16.396Z,64.17
2022-08-12T04:32:14.043Z,64.34
2022-08-12T04:34:42.247Z,64.50
2022-08-12T04:37:08.864Z,64.54
2022-08-12T04:39:36.174Z,64.68
2022-08-12T04:42:02.832Z,64.91
2022-08-12T04:44:31.930Z,65.09
2022-08-12T04:46:58.532Z,65.15
2022-08-12T04:49:27.094Z,65.20
2022-08-12T04:51:59.241Z,65.35
2022-08-12T04:54:29.200Z,65.13
2022-08-12T04:57:04.743Z,65.07
2022-08-12T04:59:48.433Z,64.96
2022-08-12T05:02:27.049Z,65.06
2022-08-12T05:04:58.836Z,65.06
2022-08-12T05:07:28.285Z,64.98
2022-08-12T05:10:00.824Z,65.08
2022-08-12T05:12:34.810Z,65.42
2022-08-12T05:15:01.720Z,65.22
2022-08-12T05:17:28.578Z,65.26
2022-08-12T05:19:57.339Z,65.06
2022-08-12T05:22:26.761Z,65.04
2022-08-12T05:24:54.362Z,65.07
2022-08-12T05:27:22.985Z,65.06
2022-08-12T05:30:05.341Z,64.58
2022-08-12T05:32:36.431Z,64.46
2022-08-12T05:35:09.163Z,63.93
2022-08-12T05:37:35.809Z,63.42
2022-08-12T05:40:10.707Z,63.31
2022-08-12T05:42:38.338Z,63.16
2022-08-12T05:45:06.365Z,63.06
2022-08-12T05:47:52.569Z,62.90
2022-08-12T05:50:20.089Z,62.83
2022-08-12T05:52:48.087Z,62.80
2022-08-12T05:55:15.305Z,62.77
2022-08-12T05:57:41.899Z,62.54
2022-08-12T06:00:08.982Z,62.16
2022-08-12T06:02:35.685Z,61.93
2022-08-12T06:05:02.751Z,61.70
2022-08-12T06:07:47.176Z,61.57
2022-08-12T06:10:31.450Z,60.94
2022-08-12T06:13:02.222Z,60.70
2022-08-12T06:15:29.784Z,60.21
2022-08-12T06:18:13.627Z,59.47
2022-08-12T06:20:43.701Z,59.13
2022-08-12T06:23:11.872Z,58.31
2022-08-12T06:25:38.866Z,57.59
2022-08-12T06:28:15.623Z,57.48
2022-08-12T06:30:42.415Z,57.10
2022-08-12T06:33:22.293Z,56.49
2022-08-12T06:35:51.832Z,54.96
2022-08-12T06:38:25.622Z,54.67
2022-08-12T06:41:15.268Z,54.25
2022-08-12T06:44:05.479Z,53.43
2022-08-12T06:46:31.222Z,53.42
2022-08-12T06:48:59.232Z,52.55
2022-08-12T06:51:31.036Z,52.00
2022-08-12T06:53:59.420Z,51.55
2022-08-12T06:56:46.081Z,50.83
2022-08-12T06:59:14.192Z,50.24
2022-08-12T07:01:40.955Z,49.40
2022-08-12T07:04:35.695Z,48.86
2022-08-12T07:07:05.534Z,48.99
2022-08-12T07:10:04.681Z,48.48
2022-08-12T07:12:19.974Z,47.84
2022-08-12T07:14:51.528Z,46.85
2022-08-12T07:17:18.736Z,46.88
2022-08-12T07:19:48.708Z,46.74
2022-08-12T07:22:15.951Z,46.55
2022-08-12T07:24:42.513Z,45.94
2022-08-12T07:27:09.344Z,45.21
2022-08-12T07:30:03.707Z,44.19
2022-08-12T07:32:24.640Z,43.64
2022-08-12T07:34:56.214Z,43.14
2022-08-12T07:37:23.572Z,42.87
2022-08-12T07:39:59.516Z,42.70
2022-08-12T07:42:27.454Z,42.52
2022-08-12T07:44:54.979Z,41.62
2022-08-12T07:47:21.600Z,41.00
2022-08-12T07:50:05.081Z,40.35
2022-08-12T07:52:38.695Z,39.53
2022-08-12T07:55:06.391Z,39.22
2022-08-12T07:57:33.728Z,38.81
2022-08-12T08:00:05.241Z,37.60
2022-08-12T08:02:37.142Z,37.14
2022-08-12T08:05:04.986Z,36.42
2022-08-12T08:07:31.653Z,36.00
2022-08-12T08:10:00.669Z,35.91
2022-08-12T08:12:46.924Z,36.13
2022-08-12T08:15:15.186Z,34.93
2022-08-12T08:17:56.580Z,34.28
2022-08-12T08:20:28.554Z,34.39
2022-08-12T08:22:57.514Z,33.76
2022-08-12T08:25:35.947Z,34.08
2022-08-12T08:28:07.266Z,33.15
2022-08-12T08:30:35.098Z,33.27
2022-08-12T08:33:01.750Z,33.62
2022-08-12T08:35:44.139Z,33.88
2022-08-12T08:38:32.354Z,33.14
2022-08-12T08:42:18.741Z,33.54
2022-08-12T08:44:12.106Z,33.18
2022-08-12T08:46:43.634Z,32.84
2022-08-12T08:49:11.421Z,31.85
2022-08-12T08:51:39.218Z,31.19
2022-08-12T08:54:07.021Z,31.13
2022-08-12T08:56:42.707Z,31.02
2022-08-12T08:59:11.331Z,30.64
2022-08-12T09:01:44.432Z,30.14
2022-08-12T09:05:08.691Z,29.82
2022-08-12T09:07:00.183Z,28.31
2022-08-12T09:09:34.066Z,28.70
2022-08-12T09:12:32.638Z,29.25
2022-08-12T09:15:16.595Z,28.77
2022-08-12T09:17:59.155Z,28.70
2022-08-12T09:20:29.472Z,28.82
2022-08-12T09:22:57.720Z,28.51
2022-08-12T09:25:33.144Z,27.42
2022-08-12T09:28:05.171Z,26.52
2022-08-12T09:30:41.710Z,26.87
2022-08-12T09:33:18.928Z,27.05
2022-08-12T09:36:04.361Z,27.01
2022-08-12T09:38:33.528Z,27.34
2022-08-12T09:42:34.423Z,26.70
2022-08-12T09:44:39.190Z,26.06
2022-08-12T09:46:56.226Z,26.05
2022-08-12T09:49:24.986Z,25.75
2022-08-12T09:51:55.378Z,25.09
2022-08-12T09:54:34.192Z,25.32
2022-08-12T09:58:45.472Z,24.91
2022-08-12T10:00:15.531Z,25.21
2022-08-12T10:03:04.552Z,24.31
2022-08-12T10:06:20.414Z,24.99
2022-08-12T10:08:27.633Z,24.06
2022-08-12T10:11:19.950Z,23.86
2022-08-12T10:13:48.696Z,23.39
2022-08-12T10:16:21.710Z,22.20
2022-08-12T10:18:59.868Z,22.38
2022-08-12T10:21:36.095Z,22.63
2022-08-12T10:24:12.364Z,22.77
2022-08-12T10:26:59.615Z,21.80
2022-08-12T10:30:37.472Z,21.47
2022-08-12T10:32:44.158Z,21.47
2022-08-12T10:35:14.334Z,21.40
2022-08-12T10:38:35.790Z,21.01
2022-08-12T10:40:33.173Z,20.74
2022-08-12T10:43:20.418Z,20.72
2022-08-12T10:45:49.377Z,19.30
2022-08-12T10:48:21.184Z,18.68
2022-08-12T10:51:00.997Z,18.73
2022-08-12T10:53:46.135Z,18.89
2022-08-12T10:56:17.642Z,18.64
2022-08-12T10:58:46.900Z,18.86
2022-08-12T11:01:48.920Z,18.60
2022-08-12T11:04:34.333Z,18.41
2022-08-12T11:07:05.444Z,18.18
2022-08-12T11:10:00.997Z,18.44
2022-08-12T11:12:55.743Z,17.68
2022-08-12T11:15:24.253Z,17.54
2022-08-12T11:18:03.110Z,18.25
2022-08-12T11:20:30.951Z,18.69
2022-08-12T11:22:59.806Z,17.58
2022-08-12T11:25:53.763Z,16.94
2022-08-12T11:28:17.309Z,17.65
2022-08-12T11:31:00.417Z,17.62
2022-08-12T11:34:06.099Z,17.63
2022-08-12T11:36:14.605Z,17.63
2022-08-12T11:38:41.427Z,17.35
2022-08-12T11:41:09.761Z,17.45
2022-08-12T11:43:50.656Z,16.58
2022-08-12T11:46:22.928Z,17.46
2022-08-12T11:48:52.333Z,16.90
2022-08-12T11:51:19.690Z,16.71
2022-08-12T11:53:59.621Z,17.02
2022-08-12T11:56:38.582Z,16.38
2022-08-12T12:02:03.035Z,16.76
2022-08-12T12:04:31.238Z,16.14
2022-08-12T12:07:07.301Z,16.13
2022-08-12T12:09:53.601Z,16.34
2022-08-12T12:15:25.401Z,17.39
2022-08-12T12:18:05.693Z,16.41
2022-08-12T12:20:34.280Z,16.10
2022-08-12T12:23:00.860Z,16.57
2022-08-12T12:26:06.711Z,16.42
2022-08-12T12:28:37.261Z,17.55
2022-08-12T12:31:01.889Z,16.20
2022-08-12T12:33:57.264Z,15.92
2022-08-12T12:36:24.047Z,16.87
2022-08-12T12:38:55.908Z,16.68
2022-08-12T12:41:22.481Z,16.78
2022-08-12T12:44:13.431Z,16.73
2022-08-12T12:46:55.778Z,16.50
2022-08-12T12:49:26.128Z,16.52
2022-08-12T12:52:18.172Z,16.45
2022-08-12T12:54:52.663Z,16.79
2022-08-12T12:57:21.585Z,16.99
2022-08-12T13:00:16.739Z,17.71
2022-08-12T13:02:53.920Z,17.67
2022-08-12T13:05:27.927Z,16.89
2022-08-12T13:08:01.303Z,15.80
2022-08-12T13:10:32.067Z,16.97
2022-08-12T13:14:07.383Z,16.59
2022-08-12T13:15:50.682Z,17.16
2022-08-12T13:18:20.513Z,16.61
2022-08-12T13:20:55.910Z,17.29
2022-08-12T13:23:37.148Z,16.38
2022-08-12T13:26:04.800Z,16.20
2022-08-12T13:28:31.789Z,16.25
2022-08-12T13:30:59.523Z,16.46
2022-08-12T13:33:28.510Z,16.65
2022-08-12T13:36:07.128Z,16.14
2022-08-12T13:38:41.052Z,16.62
2022-08-12T13:41:32.606Z,17.02
2022-08-12T13:44:00.369Z,17.30
2022-08-12T13:46:27.032Z,16.65
2022-08-12T13:48:56.516Z,16.22
2022-08-12T13:51:24.735Z,17.16
2022-08-12T13:53:58.981Z,16.95
2022-08-12T13:56:34.480Z,16.73
2022-08-12T13:59:02.765Z,16.67
2022-08-12T14:01:31.398Z,17.82
2022-08-12T14:04:00.087Z,17.39
2022-08-12T14:06:30.416Z,17.48
2022-08-12T14:08:59.577Z,17.22
2022-08-12T14:11:27.950Z,17.39
2022-08-12T14:14:05.700Z,17.34
2022-08-12T14:16:48.879Z,17.11
2022-08-12T14:19:22.356Z,17.37
2022-08-12T14:22:00.709Z,17.76
2022-08-12T14:24:43.718Z,17.89
2022-08-12T14:28:04.441Z,17.72
2022-08-12T14:30:28.911Z,18.04
2022-08-12T14:32:56.274Z,18.25
2022-08-12T14:35:24.446Z,18.89
2022-08-12T14:37:54.949Z,19.01
2022-08-12T14:40:27.895Z,18.84
2022-08-12T14:42:57.081Z,18.83
2022-08-12T14:45:24.688Z,18.92
2022-08-12T14:48:12.585Z,19.00
2022-08-12T14:51:09.739Z,19.09
2022-08-12T14:59:23.330Z,20.00
2022-08-12T15:01:51.999Z,20.64
2022-08-12T15:04:22.553Z,20.63
2022-08-12T15:06:52.859Z,20.43
2022-08-12T15:09:28.652Z,20.35
2022-08-12T15:12:03.224Z,19.96
2022-08-12T15:14:35.294Z,19.59
2022-08-12T15:17:07.124Z,20.39
2022-08-12T15:20:11.884Z,20.72
2022-08-12T15:22:37.683Z,20.48
2022-08-12T15:25:07.531Z,20.47
2022-08-12T15:28:20.365Z,20.89
2022-08-12T15:30:24.901Z,21.47
2022-08-12T15:32:56.908Z,21.19
2022-08-12T15:35:24.309Z,21.85
2022-08-12T15:38:10.299Z,22.55
2022-08-12T15:40:46.903Z,22.60
2022-08-12T15:43:35.538Z,22.62
2022-08-12T15:46:06.637Z,22.67
2022-08-12T15:48:33.907Z,22.99
2022-08-12T15:51:03.033Z,23.50
2022-08-12T15:53:51.278Z,23.43
2022-08-12T15:56:29.452Z,22.77
2022-08-12T15:59:00.642Z,22.97
2022-08-12T16:01:35.642Z,23.72
2022-08-12T16:04:02.846Z,23.54
2022-08-12T16:07:02.261Z,23.81
2022-08-12T16:09:21.321Z,23.98
2022-08-12T16:11:49.002Z,24.38
2022-08-12T16:14:16.270Z,24.37
2022-08-12T16:16:43.163Z,24.52
2022-08-12T16:20:01.766Z,24.66
2022-08-12T16:22:05.709Z,25.08
2022-08-12T16:24:42.215Z,25.11
2022-08-12T16:27:09.644Z,25.77
2022-08-12T16:29:54.141Z,25.47
2022-08-12T16:32:24.433Z,25.18
2022-08-12T16:34:54.985Z,25.55
2022-08-12T16:37:22.987Z,25.33
2022-08-12T16:40:06.169Z,25.96
2022-08-12T16:42:39.174Z,25.87
2022-08-12T16:45:15.039Z,26.28
2022-08-12T16:47:58.760Z,26.54
2022-08-12T16:50:30.901Z,26.35
2022-08-12T16:52:59.887Z,26.81
2022-08-12T16:55:38.109Z,26.47
2022-08-12T16:58:28.342Z,26.32
2022-08-12T17:01:03.157Z,26.35
2022-08-12T17:03:35.295Z,25.83
2022-08-12T17:06:04.316Z,26.44
2022-08-12T17:08:31.122Z,26.80
2022-08-12T17:10:57.889Z,26.48
2022-08-12T17:13:26.366Z,27.20
2022-08-12T17:16:05.628Z,26.65
2022-08-12T17:18:44.205Z,26.46
2022-08-12T17:21:41.091Z,26.44
2022-08-12T17:24:15.720Z,27.20
2022-08-12T17:26:45.502Z,27.31
2022-08-12T17:29:19.583Z,27.21
2022-08-12T17:32:02.899Z,26.83
2022-08-12T17:34:50.281Z,27.31
2022-08-12T17:37:17.168Z,27.75
2022-08-12T17:40:15.987Z,27.43
2022-08-12T17:42:34.557Z,27.89
2022-08-12T17:45:17.104Z,28.48
2022-08-12T17:48:04.582Z,28.31
2022-08-12T17:50:39.557Z,28.44
2022-08-12T17:53:10.050Z,28.43
2022-08-12T17:55:47.267Z,28.64
2022-08-12T17:58:19.048Z,28.58
2022-08-12T18:00:50.653Z,28.89
2022-08-12T18:04:05.291Z,29.13
2022-08-12T18:06:13.659Z,29.36
2022-08-12T18:08:48.850Z,29.69
2022-08-12T18:12:04.306Z,29.60
2022-08-12T18:14:28.118Z,29.54
2022-08-12T18:16:57.576Z,29.79
2022-08-12T18:19:27.649Z,30.01
2022-08-12T18:22:14.388Z,30.07
2022-08-12T18:24:41.644Z,30.29
2022-08-12T18:27:28.760Z,30.47
2022-08-12T18:29:55.804Z,30.61
2022-08-12T18:32:44.012Z,30.76
2022-08-12T18:35:12.464Z,30.98
2022-08-12T18:37:42.610Z,31.34
2022-08-12T18:40:28.902Z,31.30
2022-08-12T18:42:59.277Z,31.55
2022-08-12T18:45:46.499Z,31.35
2022-08-12T18:48:16.629Z,31.60
2022-08-12T18:50:50.234Z,31.75
2022-08-12T18:54:06.616Z,31.95
2022-08-12T18:56:06.696Z,32.23
2022-08-12T18:58:59.534Z,32.23
2022-08-12T19:02:21.019Z,32.19
2022-08-12T19:04:15.648Z,32.20
2022-08-12T19:06:46.458Z,32.34
2022-08-12T19:09:15.183Z,32.45
2022-08-12T19:12:00.927Z,32.42
2022-08-12T19:14:28.226Z,32.58
2022-08-12T19:17:01.229Z,32.75
2022-08-12T19:19:28.543Z,32.96
2022-08-12T19:22:08.334Z,32.76
2022-08-12T19:24:53.981Z,32.74
2022-08-12T19:27:21.580Z,32.84
2022-08-12T19:30:07.174Z,32.91
2022-08-12T19:32:36.180Z,33.15
2022-08-12T19:36:08.150Z,33.34
2022-08-12T19:38:06.530Z,33.49
2022-08-12T19:40:37.369Z,33.41
2022-08-12T19:43:17.955Z,33.47
2022-08-12T19:45:51.662Z,33.80
2022-08-12T19:48:20.350Z,34.06
2022-08-12T19:50:50.411Z,33.97
2022-08-12T19:53:24.202Z,34.05
2022-08-12T19:55:53.140Z,34.30
2022-08-12T19:58:20.857Z,34.37
2022-08-12T20:00:53.669Z,34.46
2022-08-12T20:03:39.246Z,34.64
2022-08-12T20:06:15.978Z,34.73
2022-08-12T20:08:48.620Z,34.89
2022-08-12T20:12:15.309Z,35.15
2022-08-12T20:14:06.483Z,35.32
2022-08-12T20:16:57.765Z,35.44
2022-08-12T20:19:52.963Z,35.56
2022-08-12T20:22:16.623Z,35.61
2022-08-12T20:24:51.119Z,35.45
2022-08-12T20:27:28.651Z,35.54
2022-08-12T20:30:12.872Z,35.75
2022-08-12T20:33:00.658Z,35.64
2022-08-12T20:35:38.973Z,35.78
2022-08-12T20:38:26.335Z,35.88
2022-08-12T20:40:54.560Z,36.00
2022-08-12T20:43:28.021Z,36.09
2022-08-12T20:45:57.567Z,36.26
2022-08-12T20:48:26.219Z,36.51
2022-08-12T20:50:57.577Z,36.42
2022-08-12T20:53:32.857Z,36.53
2022-08-12T20:56:30.591Z,36.61
2022-08-12T20:58:59.985Z,36.76
2022-08-12T21:01:36.759Z,36.76
2022-08-12T21:04:32.891Z,36.91
2022-08-12T21:07:08.688Z,36.90
2022-08-12T21:09:47.586Z,36.86
2022-08-12T21:12:27.718Z,36.87
2022-08-12T21:15:23.217Z,37.01
2022-08-12T21:18:11.798Z,37.08
2022-08-12T21:20:54.292Z,37.13
2022-08-12T21:23:23.011Z,36.70
2022-08-12T21:25:52.525Z,36.73
2022-08-12T21:28:21.077Z,36.56
2022-08-12T21:31:11.170Z,36.48
2022-08-12T21:33:58.515Z,36.63
2022-08-12T21:36:34.515Z,36.66
2022-08-12T21:39:19.106Z,36.66
2022-08-12T21:41:53.192Z,36.43
2022-08-12T21:44:24.875Z,36.51
2022-08-12T21:47:18.284Z,36.54
2022-08-12T21:50:03.801Z,36.41
2022-08-12T21:52:41.005Z,36.63
2022-08-12T21:55:18.810Z,36.61
2022-08-12T21:57:54.589Z,36.52
2022-08-12T22:00:32.105Z,36.34
2022-08-12T22:03:55.005Z,36.47
2022-08-12T22:06:31.584Z,36.96
2022-08-12T22:09:16.595Z,37.01
2022-08-12T22:11:56.643Z,36.99
2022-08-12T22:14:29.049Z,36.88
2022-08-12T22:16:57.254Z,37.01
2022-08-12T22:19:24.094Z,37.17
2022-08-12T22:21:54.412Z,37.08
2022-08-12T22:24:26.568Z,37.17
2022-08-12T22:27:08.371Z,37.08
2022-08-12T22:30:16.883Z,37.26
2022-08-12T22:32:49.896Z,37.37
2022-08-12T22:35:56.322Z,37.65
2022-08-12T22:38:23.792Z,37.79
2022-08-12T22:41:02.580Z,37.87
2022-08-12T22:43:59.122Z,38.13
2022-08-12T22:46:34.614Z,38.24
2022-08-12T22:49:01.554Z,38.42
2022-08-12T22:52:00.221Z,38.64
2022-08-12T22:54:35.441Z,38.64
2022-08-12T22:57:05.408Z,38.95
2022-08-12T22:59:51.508Z,39.19
2022-08-12T23:02:28.897Z,39.57
2022-08-12T23:04:58.061Z,40.01
2022-08-12T23:07:24.737Z,40.25
2022-08-12T23:09:51.786Z,40.16
2022-08-12T23:12:46.711Z,40.16
2022-08-12T23:15:14.034Z,40.12
2022-08-12T23:17:41.733Z,40.15
2022-08-12T23:20:10.988Z,40.28
2022-08-12T23:22:40.236Z,40.28
2022-08-12T23:25:18.963Z,40.27
2022-08-12T23:28:29.577Z,40.38
2022-08-12T23:31:04.252Z,40.55
2022-08-12T23:33:59.943Z,40.62
2022-08-12T23:36:31.770Z,40.89
2022-08-12T23:40:14.994Z,40.84
2022-08-12T23:42:18.285Z,40.95
2022-08-12T23:44:43.018Z,41.06
2022-08-12T23:47:12.660Z,41.07
2022-08-12T23:49:58.104Z,41.09
2022-08-12T23:52:34.181Z,41.27
2022-08-12T23:55:23.368Z,41.35
2022-08-12T23:58:18.496Z,41.30
